Hauptseite
METAR-TAF:

METAR-TAF

Flughäfen :

Fliegerhorst Nörvenich

Nörvenich, Deutschland

Breite: 50-50N, Länge: 006-40E, Höhe: 118 m

Beobachtung

Neuester Wetterbericht von vor 1 Stunde und 12 Minuten, um 01:20 UTC
Wind 2 kt aus West/Südwest
Temperatur 13°C
Luftfeuchtigkeit 88%
Luftdruck 1018 hPa
Sichtweite 10 km oder mehr

METAR: ETNN 180120Z 25002KT 9999 13/11 Q1018 BLU+

Zeit: 04:32 (02:32 UTC)

Prognose

Neuester Wetterbericht von vor 6 Stunden und 34 Minuten, um 19:58 UTC
Gültige Prognose vom 17 um 19 UTC bis 18 um 02 UTC
Wind 5 kt aus West
Sichtweite: 2000 m
Leicht bewölkt in der Höhe von 6000 ft

TAF: ETNN 171958Z 1719/1802 26005KT 9999 NSW FEW060 CANCEL 2000 BY ETGL

Wetterbeobachtungen und Prognosen von mehr als 4000 Flughäfen (METAR und TAF Bericht).

Die verfügbaren Stationen werden durch gelbe und rote Markierungen auf der Karte dargestellt.

Führen Sie die Maus auf sie, um den Namen der Station zu sehen.

Darauf klicken, um die Beobachtung von Wetterbeobachtungen und Prognosen zu sehen.

Um die Karte zu ändern : klicken Sie auf den grünen Tasten mit einem schwarzen Kreuz Zum Vergrößern, auf den grünen Button mit einem Gedankenstrich zu verkleinern, oder auf die grünen Pfeile für benachbarte Karten.


METAR-TAF: